San Francisco, California
Current Conditions -  °F | °C
As of 8:56 AM on Sunday 21 Dec 2014 (Local Time) from KSFO Reporting Station
Haze Haze  
Wind Chill: 61°   Ceiling: 500
Heat Index: 61°   Visibility: 3mi
Dew Point: 61°   Wind: 10mph
Humidity: 100%   Direction: 280°W
Pressure: 30.31"   Gusts: NA
Location:  37.78°N, 122.42°W
Report Text: KSFO 211656Z 28009KT 3SM BR FEW003 BKN005 OVC010 16/16 A3031 RMK AO2 SLP264 T01610161
Loading
Personal Weather Stations






























Interactive Weather Map New forecast layout! Learn more

10-Day Weather Forecast

Advertisements
Track Severe Weather on mobile